createdAt,value
2018-11-11T00:00:20.824Z,19.3
2018-11-11T00:01:24.422Z,19.4
2018-11-11T00:02:28.528Z,19.4
2018-11-11T00:03:37.258Z,19.4
2018-11-11T00:04:38.422Z,19.5
2018-11-11T00:05:39.895Z,19.5
2018-11-11T00:06:41.191Z,19.5
2018-11-11T00:07:45.184Z,19.4
2018-11-11T00:08:46.601Z,19.5
2018-11-11T00:09:47.772Z,19.4
2018-11-11T00:10:49.154Z,19.4
2018-11-11T00:11:50.573Z,19.4
2018-11-11T00:12:51.765Z,19.4
2018-11-11T00:13:52.935Z,19.4
2018-11-11T00:14:54.105Z,19.4
2018-11-11T00:16:03.175Z,19.3
2018-11-11T00:17:04.384Z,19.4
2018-11-11T00:18:08.602Z,19.4
2018-11-11T00:20:22.830Z,19.4
2018-11-11T00:21:24.059Z,19.5
2018-11-11T00:22:25.206Z,19.4
2018-11-11T00:23:26.390Z,19.5
2018-11-11T00:24:28.640Z,19.5
2018-11-11T00:25:31.863Z,19.5
2018-11-11T00:26:33.077Z,19.5
2018-11-11T00:27:41.731Z,19.4
2018-11-11T00:28:42.909Z,18.8
2018-11-11T00:29:44.070Z,18.4
2018-11-11T00:30:45.304Z,18
2018-11-11T00:31:46.756Z,17.9
2018-11-11T00:32:47.917Z,17.8
2018-11-11T00:33:49.112Z,17.9
2018-11-11T00:34:50.458Z,17.7
2018-11-11T00:35:51.702Z,17.7
2018-11-11T00:36:52.898Z,17.7
2018-11-11T00:37:54.062Z,17.7
2018-11-11T00:38:55.225Z,17.7
2018-11-11T00:39:56.408Z,17.7
2018-11-11T00:40:57.574Z,17.7
2018-11-11T00:42:00.928Z,17.6
2018-11-11T00:43:02.094Z,17.5
2018-11-11T00:44:03.227Z,17.5
2018-11-11T00:45:04.445Z,17.5
2018-11-11T00:46:05.694Z,17.5
2018-11-11T00:47:07.077Z,17.6
2018-11-11T00:48:08.233Z,17.5
2018-11-11T00:49:12.377Z,17.4
2018-11-11T00:50:13.541Z,17.5
2018-11-11T00:51:15.417Z,17.6
2018-11-11T00:52:17.441Z,17.5
2018-11-11T00:53:18.603Z,17.5
2018-11-11T00:54:19.770Z,17.4
2018-11-11T00:55:25.278Z,17.3
2018-11-11T00:56:26.443Z,17.3
2018-11-11T00:57:27.610Z,17.3
2018-11-11T00:58:31.470Z,17.4
2018-11-11T00:59:35.711Z,17.3
2018-11-11T01:00:36.864Z,17.4
2018-11-11T01:01:38.039Z,17.2
2018-11-11T01:02:39.248Z,17.2
2018-11-11T01:03:40.385Z,17.2
2018-11-11T01:04:41.527Z,17.3
2018-11-11T01:05:42.705Z,17.2
2018-11-11T01:06:43.861Z,17.2
2018-11-11T01:07:45.059Z,17.2
2018-11-11T01:08:46.203Z,17.2
2018-11-11T01:09:47.360Z,17.1
2018-11-11T01:10:48.511Z,17.1
2018-11-11T01:11:49.682Z,17.1
2018-11-11T01:12:51.042Z,17.1
2018-11-11T01:13:52.213Z,17.1
2018-11-11T01:14:54.816Z,17.1
2018-11-11T01:15:55.968Z,17.2
2018-11-11T01:16:59.338Z,17.2
2018-11-11T01:18:00.527Z,17.2
2018-11-11T01:19:01.719Z,17.1
2018-11-11T01:20:02.848Z,17.1
2018-11-11T01:21:06.718Z,17
2018-11-11T01:22:07.860Z,17
2018-11-11T01:23:09.046Z,16.9
2018-11-11T01:24:10.181Z,16.9
2018-11-11T01:25:11.359Z,17
2018-11-11T01:26:12.539Z,16.8
2018-11-11T01:27:13.774Z,16.9
2018-11-11T01:28:14.946Z,16.8
2018-11-11T01:29:16.087Z,16.8
2018-11-11T01:30:17.239Z,16.8
2018-11-11T01:31:18.398Z,16.8
2018-11-11T01:32:19.547Z,16.8
2018-11-11T01:33:20.734Z,16.7
2018-11-11T01:34:21.874Z,16.7
2018-11-11T01:35:24.721Z,16.7
2018-11-11T01:36:25.862Z,16.7
2018-11-11T01:37:27.023Z,16.7
2018-11-11T01:38:28.193Z,16.8
2018-11-11T01:39:29.314Z,16.8
2018-11-11T01:40:30.536Z,16.9
2018-11-11T01:41:31.713Z,17
2018-11-11T01:42:33.299Z,16.9
2018-11-11T01:43:34.495Z,16.9
2018-11-11T01:44:35.626Z,16.9
2018-11-11T01:45:36.793Z,16.9
2018-11-11T01:46:37.953Z,16.8
2018-11-11T01:47:39.096Z,16.7
2018-11-11T01:48:40.543Z,16.8
2018-11-11T01:49:41.704Z,16.7
2018-11-11T01:50:42.873Z,16.7
2018-11-11T01:51:44.018Z,16.8
2018-11-11T01:52:45.207Z,16.7
2018-11-11T01:53:46.377Z,16.5
2018-11-11T01:54:47.524Z,16.6
2018-11-11T01:55:48.669Z,16.6
2018-11-11T01:56:49.805Z,16.6
2018-11-11T01:57:50.947Z,16.7
2018-11-11T01:58:52.125Z,16.8
2018-11-11T01:59:53.287Z,16.8
2018-11-11T02:00:54.453Z,16.8
2018-11-11T02:01:55.603Z,16.7
2018-11-11T02:02:59.113Z,16.6
2018-11-11T02:04:00.307Z,16.7
2018-11-11T02:05:01.497Z,16.5
2018-11-11T02:06:02.664Z,16.6
2018-11-11T02:07:03.843Z,16.6
2018-11-11T02:08:05.014Z,16.6
2018-11-11T02:09:06.203Z,16.6
2018-11-11T02:10:10.140Z,16.5
2018-11-11T02:11:11.315Z,16.4
2018-11-11T02:12:17.441Z,16.4
2018-11-11T02:13:18.583Z,16.5
2018-11-11T02:14:20.288Z,16.5
2018-11-11T02:15:27.884Z,16.6
2018-11-11T02:16:29.124Z,16.7
2018-11-11T02:17:30.287Z,16.5
2018-11-11T02:18:31.428Z,16.6
2018-11-11T02:19:32.937Z,16.7
2018-11-11T02:20:34.144Z,16.6
2018-11-11T02:21:35.309Z,16.5
2018-11-11T02:22:36.443Z,16.4
2018-11-11T02:23:37.614Z,16.5
2018-11-11T02:24:38.786Z,16.5
2018-11-11T02:25:39.935Z,16.4
2018-11-11T02:26:41.086Z,16.4
2018-11-11T02:27:46.192Z,16.4
2018-11-11T02:28:47.381Z,16.3
2018-11-11T02:29:48.769Z,16.4
2018-11-11T02:30:51.003Z,16.4
2018-11-11T02:31:52.190Z,16.4
2018-11-11T02:32:53.327Z,16.3
2018-11-11T02:33:54.473Z,16.4
2018-11-11T02:34:55.689Z,16.5
2018-11-11T02:35:57.122Z,16.3
2018-11-11T02:36:58.667Z,16.3
2018-11-11T02:37:59.777Z,16.2
2018-11-11T02:39:00.973Z,16.2
2018-11-11T02:40:07.211Z,16.2
2018-11-11T02:41:11.710Z,16.1
2018-11-11T02:42:13.136Z,16.1
2018-11-11T02:43:18.762Z,16.2
2018-11-11T02:44:19.882Z,16.2
2018-11-11T02:45:21.269Z,16.1
2018-11-11T02:46:22.384Z,16.1
2018-11-11T02:47:26.551Z,16.1
2018-11-11T02:48:30.206Z,15.9
2018-11-11T02:52:12.645Z,16
2018-11-11T02:53:30.561Z,16
2018-11-11T02:54:32.555Z,16.1
2018-11-11T02:55:36.011Z,16.2
2018-11-11T02:56:37.186Z,16.1
2018-11-11T02:57:38.318Z,16.1
2018-11-11T02:58:39.443Z,16
2018-11-11T02:59:40.584Z,16.2
2018-11-11T03:00:41.966Z,16.2
2018-11-11T03:01:43.791Z,16.1
2018-11-11T03:02:44.953Z,16.1
2018-11-11T03:03:46.299Z,16.2
2018-11-11T03:04:49.494Z,16.2
2018-11-11T03:05:51.561Z,16.1
2018-11-11T03:06:52.772Z,16.2
2018-11-11T03:07:53.918Z,16.1
2018-11-11T03:08:55.073Z,16.1
2018-11-11T03:09:56.222Z,16.1
2018-11-11T03:10:57.382Z,16
2018-11-11T03:11:58.555Z,16.1
2018-11-11T03:12:59.702Z,16.1
2018-11-11T03:14:00.831Z,15.9
2018-11-11T03:15:16.418Z,16
2018-11-11T03:16:17.572Z,16
2018-11-11T03:17:18.740Z,16
2018-11-11T03:18:19.858Z,16
2018-11-11T03:19:21.016Z,16.1
2018-11-11T03:20:22.142Z,16
2018-11-11T03:21:23.317Z,16.1
2018-11-11T03:22:24.489Z,16.1
2018-11-11T03:23:25.630Z,16.1
2018-11-11T03:24:26.778Z,16.2
2018-11-11T03:25:27.970Z,16.2
2018-11-11T03:26:29.112Z,16
2018-11-11T03:27:30.257Z,16
2018-11-11T03:28:31.409Z,16.1
2018-11-11T03:30:33.731Z,16
2018-11-11T03:31:34.989Z,15.9
2018-11-11T03:32:36.142Z,15.8
2018-11-11T03:33:37.282Z,15.9
2018-11-11T03:34:38.430Z,16
2018-11-11T03:35:39.561Z,15.9
2018-11-11T03:36:40.718Z,15.9
2018-11-11T03:37:44.718Z,15.9
2018-11-11T03:38:46.106Z,15.9
2018-11-11T03:39:47.267Z,16
2018-11-11T03:40:48.458Z,15.9
2018-11-11T03:41:49.591Z,15.8
2018-11-11T03:42:50.769Z,15.8
2018-11-11T03:43:52.027Z,15.6
2018-11-11T03:44:54.751Z,15.7
2018-11-11T03:45:56.997Z,15.8
2018-11-11T03:46:58.149Z,15.7
2018-11-11T03:47:59.328Z,15.5
2018-11-11T03:49:03.607Z,15.6
2018-11-11T03:50:06.929Z,15.6
2018-11-11T03:51:08.082Z,15.6
2018-11-11T03:52:09.221Z,15.6
2018-11-11T03:53:10.752Z,15.6
2018-11-11T03:54:11.994Z,15.8
2018-11-11T03:55:13.154Z,15.7
2018-11-11T03:56:14.297Z,15.6
2018-11-11T03:57:15.468Z,15.5
2018-11-11T03:58:20.027Z,15.5
2018-11-11T03:59:21.162Z,15.4
2018-11-11T04:00:22.317Z,15.5
2018-11-11T04:01:24.936Z,15.6
2018-11-11T04:02:26.104Z,15.6
2018-11-11T04:03:27.266Z,15.6
2018-11-11T04:04:28.382Z,15.6
2018-11-11T04:05:29.501Z,15.6
2018-11-11T04:06:30.642Z,15.5
2018-11-11T04:07:31.787Z,15.5
2018-11-11T04:08:34.128Z,15.5
2018-11-11T04:09:35.639Z,15.4
2018-11-11T04:10:39.085Z,15.5
2018-11-11T04:11:40.210Z,15.4
2018-11-11T04:12:41.341Z,15.4
2018-11-11T04:13:42.541Z,15.4
2018-11-11T04:14:43.688Z,15.5
2018-11-11T04:15:44.872Z,15.3
2018-11-11T04:16:45.988Z,15.1
2018-11-11T04:17:47.125Z,15.1
2018-11-11T04:18:48.366Z,15.2
2018-11-11T04:19:49.626Z,15
2018-11-11T04:20:50.935Z,15.1
2018-11-11T04:21:52.073Z,15.3
2018-11-11T04:22:53.206Z,15.2
2018-11-11T04:23:54.402Z,15.3
2018-11-11T04:24:55.552Z,15.2
2018-11-11T04:25:56.723Z,15
2018-11-11T04:26:59.150Z,15.1
2018-11-11T04:28:03.033Z,15
2018-11-11T04:29:04.215Z,15.1
2018-11-11T04:30:08.116Z,15.2
2018-11-11T04:31:09.286Z,15.1
2018-11-11T04:32:10.426Z,15
2018-11-11T04:33:11.588Z,15
2018-11-11T04:34:12.774Z,15.1
2018-11-11T04:35:13.910Z,15.3
2018-11-11T04:36:15.066Z,15.2
2018-11-11T04:37:16.209Z,15
2018-11-11T04:38:17.341Z,15
2018-11-11T04:39:18.947Z,15
2018-11-11T04:40:20.040Z,15
2018-11-11T04:41:21.187Z,15.1
2018-11-11T04:42:22.465Z,14.9
2018-11-11T04:43:23.727Z,14.8
2018-11-11T04:44:24.932Z,14.9
2018-11-11T04:45:26.087Z,14.9
2018-11-11T04:46:27.296Z,15
2018-11-11T04:47:28.400Z,15.1
2018-11-11T04:48:29.537Z,14.9
2018-11-11T04:49:30.702Z,14.9
2018-11-11T04:50:31.971Z,14.9
2018-11-11T04:51:33.099Z,14.9
2018-11-11T04:52:34.222Z,14.9
2018-11-11T04:53:35.405Z,14.9
2018-11-11T04:54:37.046Z,15
2018-11-11T04:55:38.206Z,14.9
2018-11-11T04:56:39.559Z,14.9
2018-11-11T04:57:41.283Z,14.8
2018-11-11T04:58:43.422Z,14.9
2018-11-11T04:59:44.831Z,14.9
2018-11-11T05:00:45.961Z,15.1
2018-11-11T05:01:47.115Z,15.3
2018-11-11T05:02:48.265Z,15.3
2018-11-11T05:03:52.159Z,15.1
2018-11-11T05:04:56.127Z,14.9
2018-11-11T05:05:57.302Z,14.9
2018-11-11T05:06:58.440Z,15
2018-11-11T05:07:59.603Z,15.1
2018-11-11T05:09:03.395Z,15
2018-11-11T05:10:06.496Z,14.9
2018-11-11T05:11:07.640Z,15
2018-11-11T05:12:08.773Z,15
2018-11-11T05:13:09.931Z,14.9
2018-11-11T05:14:11.245Z,14.9
2018-11-11T05:15:12.430Z,14.8
2018-11-11T05:16:13.638Z,14.8
2018-11-11T05:17:14.762Z,14.8
2018-11-11T05:18:15.894Z,14.8
2018-11-11T05:19:17.030Z,14.7
2018-11-11T05:20:18.230Z,14.7
2018-11-11T05:21:19.383Z,14.6
2018-11-11T05:22:22.219Z,14.7
2018-11-11T05:23:26.766Z,14.6
2018-11-11T05:24:29.495Z,14.7
2018-11-11T05:25:31.207Z,14.8
2018-11-11T05:26:32.336Z,15.1
2018-11-11T05:27:33.472Z,15
2018-11-11T05:28:34.665Z,15.1
2018-11-11T05:29:37.935Z,15.1
2018-11-11T05:30:39.137Z,15
2018-11-11T05:31:40.270Z,15
2018-11-11T05:32:41.420Z,14.9
2018-11-11T05:33:42.584Z,14.9
2018-11-11T05:34:43.754Z,14.7
2018-11-11T05:35:45.211Z,14.7
2018-11-11T05:36:46.416Z,14.7
2018-11-11T05:37:48.081Z,14.6
2018-11-11T05:38:49.684Z,14.7
2018-11-11T05:39:52.646Z,14.6
2018-11-11T05:40:53.998Z,14.7
2018-11-11T05:41:55.409Z,14.7
2018-11-11T05:42:56.771Z,14.7
2018-11-11T05:43:57.910Z,14.7
2018-11-11T05:44:59.045Z,14.6
2018-11-11T05:46:00.398Z,14.6
2018-11-11T05:47:01.555Z,14.6
2018-11-11T05:48:02.689Z,14.6
2018-11-11T05:49:03.837Z,14.6
2018-11-11T05:50:05.259Z,14.6
2018-11-11T05:51:06.427Z,14.7
2018-11-11T05:52:07.561Z,14.6
2018-11-11T05:53:08.690Z,14.6
2018-11-11T05:54:09.839Z,14.6
2018-11-11T05:55:11.275Z,14.6
2018-11-11T05:56:12.775Z,14.7
2018-11-11T05:57:13.910Z,14.6
2018-11-11T05:58:15.106Z,14.5
2018-11-11T05:59:16.261Z,14.5
2018-11-11T06:00:17.403Z,14.6
2018-11-11T06:02:41.205Z,14.8
2018-11-11T06:03:47.465Z,14.7
2018-11-11T06:04:48.605Z,14.6
2018-11-11T06:05:52.482Z,14.6
2018-11-11T06:06:54.430Z,14.6
2018-11-11T06:07:58.117Z,14.5
2018-11-11T06:08:59.407Z,14.6
2018-11-11T06:10:00.546Z,14.5
2018-11-11T06:11:01.711Z,14.6
2018-11-11T06:12:02.903Z,14.7
2018-11-11T06:13:04.048Z,14.8
2018-11-11T06:14:05.227Z,14.8
2018-11-11T06:15:15.498Z,14.6
2018-11-11T06:16:16.655Z,14.5
2018-11-11T06:17:17.837Z,14.4
2018-11-11T06:18:18.968Z,14.5
2018-11-11T06:19:20.329Z,14.6
2018-11-11T06:20:21.814Z,14.5
2018-11-11T06:21:23.065Z,14.6
2018-11-11T06:22:24.274Z,14.4
2018-11-11T06:23:25.722Z,14.6
2018-11-11T06:24:26.894Z,14.5
2018-11-11T06:25:28.027Z,14.4
2018-11-11T06:26:29.175Z,14.5
2018-11-11T06:27:30.765Z,14.4
2018-11-11T06:28:32.150Z,14.4
2018-11-11T06:29:33.397Z,14.3
2018-11-11T06:30:35.748Z,14.2
2018-11-11T06:31:37.504Z,14.4
2018-11-11T06:32:38.797Z,14.6
2018-11-11T06:33:39.958Z,14.4
2018-11-11T06:34:43.572Z,14.4
2018-11-11T06:35:44.747Z,14.5
2018-11-11T06:36:45.921Z,14.3
2018-11-11T06:37:47.079Z,14.4
2018-11-11T06:38:48.234Z,14.3
2018-11-11T06:39:52.413Z,14.2
2018-11-11T06:40:53.609Z,14.3
2018-11-11T06:41:54.835Z,14.3
2018-11-11T06:42:56.344Z,14.4
2018-11-11T06:44:00.042Z,14.3
2018-11-11T06:45:01.223Z,14.4
2018-11-11T06:46:02.365Z,14.4
2018-11-11T06:47:04.955Z,14.4
2018-11-11T06:48:06.196Z,14.3
2018-11-11T06:49:07.263Z,14.4
2018-11-11T06:50:08.377Z,14.4
2018-11-11T06:51:10.918Z,14.4
2018-11-11T06:52:12.374Z,14.3
2018-11-11T06:53:13.872Z,14.3
2018-11-11T06:54:15.042Z,14.4
2018-11-11T06:55:16.199Z,14.5
2018-11-11T06:56:20.162Z,14.5
2018-11-11T06:57:21.499Z,14.4
2018-11-11T06:58:22.746Z,14.4
2018-11-11T06:59:23.903Z,14.4
2018-11-11T07:00:25.059Z,14.5
2018-11-11T07:01:28.714Z,14.5
2018-11-11T07:02:29.872Z,14.4
2018-11-11T07:03:31.084Z,14.5
2018-11-11T07:04:32.258Z,14.5
2018-11-11T07:05:33.463Z,14.6
2018-11-11T07:06:37.750Z,14.5
2018-11-11T07:07:39.828Z,14.5
2018-11-11T07:08:41.178Z,14.4
2018-11-11T07:09:43.215Z,14.2
2018-11-11T07:10:44.459Z,14.3
2018-11-11T07:11:45.836Z,14.3
2018-11-11T07:12:46.994Z,14.5
2018-11-11T07:13:48.265Z,14.4
2018-11-11T07:14:49.757Z,14.3
2018-11-11T07:15:51.002Z,14.3
2018-11-11T07:16:52.205Z,14.3
2018-11-11T07:17:53.391Z,14.2
2018-11-11T07:18:54.582Z,14.2
2018-11-11T07:19:55.728Z,14.3
2018-11-11T07:20:56.888Z,14.4
2018-11-11T07:21:58.090Z,14.4
2018-11-11T07:22:59.316Z,14.1
2018-11-11T07:24:03.326Z,14.3
2018-11-11T07:25:04.437Z,14.4
2018-11-11T07:26:05.618Z,14.4
2018-11-11T07:27:10.297Z,14.4
2018-11-11T07:28:15.959Z,14.3
2018-11-11T07:29:17.227Z,14.3
2018-11-11T07:30:18.440Z,14.3
2018-11-11T07:31:19.605Z,14.3
2018-11-11T07:32:20.762Z,14.4
2018-11-11T07:33:21.922Z,14.3
2018-11-11T07:34:25.563Z,14.3
2018-11-11T07:35:29.187Z,14.3
2018-11-11T07:37:56.982Z,14.3
2018-11-11T07:39:08.294Z,14.5
2018-11-11T07:40:10.789Z,14.3
2018-11-11T07:41:11.942Z,14.4
2018-11-11T07:42:15.326Z,14.5
2018-11-11T07:44:41.553Z,14.3
2018-11-11T07:45:45.749Z,14.4
2018-11-11T07:46:47.023Z,14.3
2018-11-11T07:47:48.217Z,14.3
2018-11-11T07:48:49.796Z,14.2
2018-11-11T07:49:58.209Z,14.5
2018-11-11T07:51:02.186Z,14.6
2018-11-11T07:52:03.460Z,14.7
2018-11-11T07:53:05.301Z,14.7
2018-11-11T07:54:06.517Z,14.5
2018-11-11T07:55:07.817Z,14.4
2018-11-11T07:56:09.019Z,14.3
2018-11-11T07:57:10.190Z,14.3
2018-11-11T07:58:11.619Z,14.1
2018-11-11T07:59:12.999Z,14.3
2018-11-11T08:00:15.166Z,14.4
2018-11-11T08:01:16.738Z,14.4
2018-11-11T08:02:18.141Z,14.4
2018-11-11T08:03:19.355Z,14.5
2018-11-11T08:04:20.496Z,14.4
2018-11-11T08:05:21.748Z,14.3
2018-11-11T08:06:23.827Z,14.3
2018-11-11T08:07:27.406Z,14.4
2018-11-11T08:08:28.643Z,14.5
2018-11-11T08:09:29.797Z,14.6
2018-11-11T08:10:33.648Z,14.6
2018-11-11T08:11:34.860Z,14.4
2018-11-11T08:12:36.009Z,14.3
2018-11-11T08:13:37.234Z,14.4
2018-11-11T08:14:38.371Z,14.3
2018-11-11T08:15:39.507Z,14.2
2018-11-11T08:16:40.773Z,14.3
2018-11-11T08:17:41.834Z,14.2
2018-11-11T08:18:43.020Z,14.3
2018-11-11T08:19:44.438Z,14.3
2018-11-11T08:20:45.682Z,14.4
2018-11-11T08:21:48.165Z,14.4
2018-11-11T08:22:49.344Z,14.3
2018-11-11T08:23:53.481Z,14.3
2018-11-11T08:24:57.879Z,14.4
2018-11-11T08:25:59.279Z,14.5
2018-11-11T08:27:00.488Z,14.6
2018-11-11T08:28:02.831Z,14.6
2018-11-11T08:29:06.754Z,14.6
2018-11-11T08:30:07.993Z,14.8
2018-11-11T08:31:09.123Z,15.3
2018-11-11T08:32:11.036Z,15.7
2018-11-11T08:33:12.408Z,16.2
2018-11-11T08:34:13.578Z,16.4
2018-11-11T08:35:17.153Z,16.6
2018-11-11T08:36:18.330Z,16.7
2018-11-11T08:37:19.505Z,16.7
2018-11-11T08:38:20.645Z,16.9
2018-11-11T08:39:21.823Z,16.9
2018-11-11T08:40:24.739Z,16.9
2018-11-11T08:41:25.995Z,17
2018-11-11T08:42:27.265Z,17
2018-11-11T08:43:29.739Z,17
2018-11-11T08:44:30.834Z,17.1
2018-11-11T08:45:31.989Z,17.1
2018-11-11T08:46:33.141Z,17
2018-11-11T08:47:34.644Z,16.9
2018-11-11T08:48:39.485Z,16.9
2018-11-11T08:49:40.863Z,16.9
2018-11-11T08:50:42.219Z,17.1
2018-11-11T08:51:43.369Z,17.2
2018-11-11T08:52:44.565Z,17.2
2018-11-11T08:53:45.777Z,17.3
2018-11-11T08:54:46.914Z,17.5
2018-11-11T08:55:48.053Z,17.3
2018-11-11T08:56:49.206Z,17.5
2018-11-11T08:57:50.414Z,17.5
2018-11-11T08:58:54.370Z,17.5
2018-11-11T08:59:58.288Z,17.3
2018-11-11T09:00:59.481Z,17.3
2018-11-11T09:02:00.659Z,17.3
2018-11-11T09:03:07.234Z,17.2
2018-11-11T09:04:08.648Z,17.3
2018-11-11T09:05:10.287Z,17.4
2018-11-11T09:06:14.208Z,17.6
2018-11-11T09:07:18.127Z,17.6
2018-11-11T09:08:19.598Z,17.7
2018-11-11T09:09:20.754Z,17.8
2018-11-11T09:10:24.883Z,17.9
2018-11-11T09:11:26.074Z,17.9
2018-11-11T09:12:27.428Z,18
2018-11-11T09:13:28.622Z,18
2018-11-11T09:14:33.779Z,18
2018-11-11T09:15:35.205Z,18
2018-11-11T09:16:36.655Z,18
2018-11-11T09:17:37.796Z,18.1
2018-11-11T09:18:38.962Z,18.2
2018-11-11T09:19:42.321Z,18.1
2018-11-11T09:20:44.802Z,18.2
2018-11-11T09:21:46.219Z,18.3
2018-11-11T09:22:47.401Z,18.2
2018-11-11T09:23:49.066Z,18.3
2018-11-11T09:24:50.419Z,18.1
2018-11-11T09:25:52.042Z,18.2
2018-11-11T09:26:53.724Z,18.3
2018-11-11T09:27:55.785Z,18.4
2018-11-11T09:28:58.941Z,18.4
2018-11-11T09:30:02.412Z,18.3
2018-11-11T09:31:03.844Z,18.5
2018-11-11T09:32:06.636Z,18.5
2018-11-11T09:33:07.814Z,18.5
2018-11-11T09:34:09.281Z,18.6
2018-11-11T09:35:10.448Z,18.6
2018-11-11T09:36:13.223Z,18.6
2018-11-11T09:37:14.418Z,18.6
2018-11-11T09:38:15.607Z,18.8
2018-11-11T09:39:16.808Z,18.9
2018-11-11T09:40:22.277Z,18.8
2018-11-11T09:41:23.481Z,18.9
2018-11-11T09:42:24.762Z,18.9
2018-11-11T09:43:29.368Z,18.9
2018-11-11T09:44:36.395Z,19
2018-11-11T09:45:40.892Z,18.8
2018-11-11T09:46:43.755Z,18.8
2018-11-11T09:47:50.330Z,18.7
2018-11-11T09:48:52.867Z,18.6
2018-11-11T09:49:54.073Z,18.7
2018-11-11T09:50:55.232Z,18.7
2018-11-11T09:51:57.613Z,18.8
2018-11-11T09:53:00.109Z,18.8
2018-11-11T09:54:03.861Z,18.9
2018-11-11T09:55:04.950Z,18.9
2018-11-11T09:56:09.323Z,18.9
2018-11-11T09:57:10.527Z,18.9
2018-11-11T09:58:11.951Z,18.9
2018-11-11T09:59:13.401Z,18.9
2018-11-11T10:00:14.601Z,18.8
2018-11-11T10:01:20.734Z,18.8
2018-11-11T10:02:22.345Z,19
2018-11-11T10:03:23.489Z,19
2018-11-11T10:04:24.705Z,19.1
2018-11-11T10:05:26.154Z,19
2018-11-11T10:06:27.378Z,18.9
2018-11-11T10:07:29.780Z,19.1
2018-11-11T10:08:30.915Z,19.1
2018-11-11T10:09:32.066Z,19.1
2018-11-11T10:10:33.262Z,19.1
2018-11-11T10:11:34.669Z,19
2018-11-11T10:12:38.138Z,19
2018-11-11T10:13:39.398Z,19
2018-11-11T10:14:40.719Z,18.9
2018-11-11T10:15:41.894Z,18.9
2018-11-11T10:16:43.064Z,19
2018-11-11T10:17:44.195Z,19
2018-11-11T10:18:45.335Z,19.1
2018-11-11T10:19:46.732Z,19.1
2018-11-11T10:20:48.143Z,19
2018-11-11T10:21:49.300Z,19.1
2018-11-11T10:22:59.670Z,19
2018-11-11T10:24:06.394Z,19
2018-11-11T10:25:07.539Z,19
2018-11-11T10:26:08.724Z,19.1
2018-11-11T10:27:09.957Z,19.2
2018-11-11T10:28:11.068Z,19.1
2018-11-11T10:29:12.280Z,19.2
2018-11-11T10:30:18.322Z,19.1
2018-11-11T10:31:22.314Z,19.3
2018-11-11T10:32:30.757Z,19.2
2018-11-11T10:33:33.343Z,19.3
2018-11-11T10:34:34.742Z,19.3
2018-11-11T10:35:36.173Z,19.3
2018-11-11T10:36:37.705Z,19.3
2018-11-11T10:37:41.562Z,19.2
2018-11-11T10:38:42.708Z,19.3
2018-11-11T10:39:43.988Z,19.4
2018-11-11T10:40:47.389Z,19.4
2018-11-11T10:41:48.598Z,19.4
2018-11-11T10:42:49.745Z,19.3
2018-11-11T10:43:50.883Z,19.4
2018-11-11T10:44:52.036Z,19.4
2018-11-11T10:45:56.202Z,19.4
2018-11-11T10:46:57.390Z,19.5
2018-11-11T10:48:01.175Z,19.4
2018-11-11T10:49:02.352Z,19.4
2018-11-11T10:50:03.525Z,19.4
2018-11-11T10:51:14.696Z,19.4
2018-11-11T10:52:18.291Z,19.3
2018-11-11T10:53:22.231Z,19.4
2018-11-11T10:54:26.245Z,19.4
2018-11-11T10:55:28.647Z,19.5
2018-11-11T10:56:37.239Z,19.5
2018-11-11T10:57:38.467Z,19.5
2018-11-11T10:58:39.616Z,19.5
2018-11-11T10:59:45.710Z,19.5
2018-11-11T11:00:47.898Z,19.6
2018-11-11T11:01:51.611Z,19.7
2018-11-11T11:02:55.546Z,19.8
2018-11-11T11:03:56.763Z,19.8
2018-11-11T11:04:57.927Z,19.8
2018-11-11T11:06:01.459Z,19.9
2018-11-11T11:07:02.548Z,19.9
2018-11-11T11:08:05.288Z,19.8
2018-11-11T11:09:08.589Z,19.9
2018-11-11T11:10:12.347Z,19.9
2018-11-11T11:11:16.724Z,20
2018-11-11T11:12:20.406Z,20.1
2018-11-11T11:13:21.604Z,20.2
2018-11-11T11:14:22.756Z,20.1
2018-11-11T11:15:30.772Z,20.1
2018-11-11T11:16:34.677Z,20
2018-11-11T11:17:37.263Z,20
2018-11-11T11:18:38.562Z,20
2018-11-11T11:19:39.716Z,20
2018-11-11T11:20:41.102Z,20
2018-11-11T11:21:44.487Z,20.1
2018-11-11T11:22:45.803Z,20.1
2018-11-11T11:23:48.880Z,20.1
2018-11-11T11:24:50.036Z,20.1
2018-11-11T11:25:51.543Z,20.1
2018-11-11T11:26:55.122Z,20.1
2018-11-11T11:27:56.414Z,20.1
2018-11-11T11:29:02.204Z,20.3
2018-11-11T11:30:06.190Z,20.3
2018-11-11T11:31:07.369Z,20.3
2018-11-11T11:32:08.651Z,20.2
2018-11-11T11:33:09.794Z,20.3
2018-11-11T11:34:11.007Z,20.3
2018-11-11T11:35:12.240Z,20.3
2018-11-11T11:36:13.305Z,20.4
2018-11-11T11:37:14.484Z,20.4
2018-11-11T11:38:17.833Z,20.4
2018-11-11T11:39:24.738Z,20.3
2018-11-11T11:40:25.991Z,20.4
2018-11-11T11:41:27.661Z,20.4
2018-11-11T11:42:28.807Z,20.5
2018-11-11T11:43:29.923Z,20.5
2018-11-11T11:44:33.562Z,20.5
2018-11-11T11:45:34.724Z,20.5
2018-11-11T11:46:35.958Z,20.7
2018-11-11T11:47:37.223Z,20.6
2018-11-11T11:48:39.101Z,20.5
2018-11-11T11:49:40.308Z,20.5
2018-11-11T11:50:41.494Z,20.4
2018-11-11T11:51:42.651Z,20.4
2018-11-11T11:52:43.882Z,20.3
2018-11-11T11:53:45.200Z,20.4
2018-11-11T11:54:46.491Z,20.6
2018-11-11T11:55:51.438Z,20.6
2018-11-11T11:56:53.853Z,20.4
2018-11-11T11:57:56.982Z,20.4
2018-11-11T11:59:00.334Z,20.3
2018-11-11T12:00:01.548Z,20.1
2018-11-11T12:01:02.705Z,20.2
2018-11-11T12:02:06.406Z,20.3
2018-11-11T12:03:07.532Z,20.3
2018-11-11T12:04:08.692Z,20.5
2018-11-11T12:05:11.222Z,20.5
2018-11-11T12:06:15.410Z,20.6
2018-11-11T12:07:16.899Z,20.5
2018-11-11T12:08:18.302Z,20.6
2018-11-11T12:09:22.485Z,20.5
2018-11-11T12:10:23.715Z,20.5
2018-11-11T12:11:24.884Z,20.4
2018-11-11T12:12:26.330Z,20.4
2018-11-11T12:13:27.491Z,20.4
2018-11-11T12:14:28.685Z,20.4
2018-11-11T12:15:30.003Z,20.4
2018-11-11T12:16:33.067Z,20.5
2018-11-11T12:17:34.429Z,20.5
2018-11-11T12:18:35.871Z,20.5
2018-11-11T12:19:37.091Z,20.4
2018-11-11T12:20:38.423Z,20.4
2018-11-11T12:21:42.415Z,20.5
2018-11-11T12:22:46.551Z,20.4
2018-11-11T12:23:50.612Z,20.5
2018-11-11T12:24:51.783Z,20.5
2018-11-11T12:25:52.995Z,20.5
2018-11-11T12:26:56.436Z,20.5
2018-11-11T12:28:01.097Z,20.5
2018-11-11T12:29:04.556Z,20.5
2018-11-11T12:30:06.161Z,20.5
2018-11-11T12:31:10.519Z,20.5
2018-11-11T12:32:11.682Z,20.5
2018-11-11T12:33:12.872Z,20.5
2018-11-11T12:34:14.086Z,20.4
2018-11-11T12:35:15.237Z,20.4
2018-11-11T12:36:19.406Z,20.4
2018-11-11T12:37:21.951Z,20.4
2018-11-11T12:38:23.122Z,20.4
2018-11-11T12:39:24.310Z,20.4
2018-11-11T12:40:27.506Z,20.4
2018-11-11T12:41:37.394Z,20.4
2018-11-11T12:42:38.574Z,20.5
2018-11-11T12:43:42.142Z,20.5
2018-11-11T12:44:43.474Z,20.5
2018-11-11T12:45:48.348Z,20.5
2018-11-11T12:46:49.574Z,20.5
2018-11-11T12:47:53.129Z,20.4
2018-11-11T12:48:56.573Z,20.5
2018-11-11T12:49:57.727Z,20.5
2018-11-11T12:50:59.044Z,20.5
2018-11-11T12:52:00.404Z,20.5
2018-11-11T12:53:04.409Z,20.5
2018-11-11T12:54:05.586Z,20.5
2018-11-11T12:55:10.300Z,20.5
2018-11-11T12:56:12.796Z,20.4
2018-11-11T12:57:24.423Z,20.4
2018-11-11T12:58:39.658Z,20.4
2018-11-11T12:59:43.321Z,20.4
2018-11-11T13:00:45.758Z,20.3
2018-11-11T13:01:49.605Z,20.4
2018-11-11T13:02:53.399Z,20.4
2018-11-11T13:03:57.857Z,20.4
2018-11-11T13:04:59.012Z,20.4
2018-11-11T13:06:00.165Z,20.3
2018-11-11T13:07:01.299Z,20.4
2018-11-11T13:08:02.769Z,20.4
2018-11-11T13:09:03.983Z,20.4
2018-11-11T13:10:07.374Z,20.5
2018-11-11T13:11:10.194Z,20.4
2018-11-11T13:12:11.470Z,20.5
2018-11-11T13:13:12.623Z,20.5
2018-11-11T13:14:13.780Z,20.5
2018-11-11T13:15:20.787Z,20.4
2018-11-11T13:16:21.970Z,20.4
2018-11-11T13:17:23.140Z,20.4
2018-11-11T13:18:24.561Z,20.3
2018-11-11T13:19:27.944Z,20.4
2018-11-11T13:20:29.394Z,20.3
2018-11-11T13:21:32.956Z,20.4
2018-11-11T13:22:34.411Z,20.4
2018-11-11T13:23:43.224Z,20.4
2018-11-11T13:24:46.429Z,20.4
2018-11-11T13:25:50.417Z,20.5
2018-11-11T13:26:51.786Z,20.5
2018-11-11T13:27:52.975Z,20.4
2018-11-11T13:28:54.203Z,20.4
2018-11-11T13:29:58.106Z,20.3
2018-11-11T13:31:01.450Z,20.4
2018-11-11T13:32:02.700Z,20.4
2018-11-11T13:33:03.830Z,20.4
2018-11-11T13:34:10.365Z,20.4
2018-11-11T13:35:11.540Z,20.5
2018-11-11T13:36:12.719Z,20.5
2018-11-11T13:37:13.935Z,20.5
2018-11-11T13:38:23.580Z,20.4
2018-11-11T13:39:24.742Z,20.4
2018-11-11T13:40:26.085Z,20.4
2018-11-11T13:41:27.310Z,20.5
2018-11-11T13:42:32.953Z,20.5
2018-11-11T13:43:41.366Z,20.5
2018-11-11T13:44:44.541Z,20.6
2018-11-11T13:45:48.222Z,20.5
2018-11-11T13:46:52.461Z,20.5
2018-11-11T13:47:53.636Z,20.5
2018-11-11T13:48:57.302Z,20.5
2018-11-11T13:49:59.990Z,20.6
2018-11-11T13:51:01.201Z,20.6
2018-11-11T13:52:02.360Z,20.6
2018-11-11T13:53:06.662Z,20.6
2018-11-11T13:54:07.802Z,20.5
2018-11-11T13:55:09.040Z,20.5
2018-11-11T13:56:10.436Z,20.5
2018-11-11T13:57:14.115Z,20.6
2018-11-11T13:58:16.688Z,20.6
2018-11-11T13:59:21.295Z,20.6